ADDS METAR Data INFO
IDs: Format: Raw Decoded Include TAF

Data at: 0719 UTC 19 Oct 2017

KEUL 190656Z AUTO 14004KT 9SM CLR 09/M01 A2986 RMK AO2 SLP107 T00941011 402331011
KEUL 190556Z AUTO 12006KT 9SM CLR 10/M02 A2987 RMK AO2 SLP114 T01001022 10217 20089 58007
KEUL 190456Z AUTO 10008KT 5SM HZ CLR 09/M01 A2988 RMK AO2 SLP120 T00941011
KEUL 190356Z AUTO 11006KT 9SM CLR 12/01 A2989 RMK AO2 SLP124 T01170011
KEUL 190328Z AUTO 09004KT 3SM HZ CLR 12/03 A2989 RMK AO2
KEUL 190326Z AUTO 08005KT 1SM HZ CLR 11/03 A2989 RMK AO2 RVRNO
KEUL 190311Z AUTO 02005KT 1/4SM HZ CLR 11/02 A2990 RMK AO2 RVRNO
KEUL 190308Z AUTO 05004KT 3/4SM HZ CLR 12/02 A2990 RMK AO2 RVRNO
KEUL 190256Z AUTO 00000KT 8SM CLR 13/03 A2990 RMK AO2 SLP129 T01280028 56012
KEUL 190221Z AUTO 05003KT 7SM CLR 14/04 A2990 RMK AO2
KEUL 190209Z AUTO 00000KT 1 1/2SM HZ CLR 13/03 A2990 RMK AO2
KEUL 190156Z AUTO 03004KT 1/4SM HZ CLR 16/04 A2990 RMK AO2 SLP128 T01610039 RVRNO
KEUL 190133Z AUTO 06003KT 1/4SM HZ CLR 16/03 A2990 RMK AO2 RVRNO
KEUL 190123Z AUTO 07004KT 1 1/4SM HZ CLR 15/04 A2990 RMK AO2 VIS 1/2V3
KEUL 190113Z AUTO 05003KT 3/4SM HZ CLR 17/04 A2990 RMK AO2 RVRNO
KEUL 190106Z AUTO 04005KT 1 3/4SM HZ CLR 17/04 A2990 RMK AO2
KEUL 190056Z AUTO 00000KT 6SM HZ CLR 18/03 A2991 RMK AO2 SLP131 T01780033
KEUL 182356Z AUTO 30003KT 10SM CLR 22/04 A2994 RMK AO2 SLP136 T02170039 10233 20133 56027
KEUL 182256Z AUTO 14004KT 10SM CLR 23/01 A2996 RMK AO2 SLP144 T02330011
KEUL 182156Z AUTO 15004KT 10SM CLR 23/01 A2998 RMK AO2 SLP151 T02280011
KEUL 182056Z AUTO VRB03KT 10SM CLR 21/02 A3002 RMK AO2 SLP166 T02110022 58033
KEUL 181956Z AUTO 18004KT 10SM CLR 19/03 A3006 RMK AO2 SLP181 T01890028
KEUL 181856Z AUTO VRB03KT 10SM CLR 16/02 A3011 RMK AO2 SLP197 T01610017
KEUL 181756Z AUTO 00000KT 10SM CLR 13/01 A3013 RMK AO2 SLP205 T01330006 10133 21011
KEUL 181656Z AUTO 00000KT 10SM CLR 10/00 A3013 RMK AO2 SLP207 T01000000
KEUL 181556Z AUTO 09005KT 10SM CLR 07/M01 RMK AO2 SLPNO T00721006 $
KEUL 181456Z AUTO 08009KT 8SM CLR 02/01 A3013 RMK AO2 SLP211 T00220006 51002 FZRANO
KEUL 181356Z AUTO 07003KT 8SM CLR 00/M02 A3012 RMK AO2 SLP210 T00001017 FZRANO
KEUL 181256Z AUTO 05006KT 5SM BR CLR M01/M02 A3013 RMK AO2 SLP209 T10061022 FZRANO
KEUL 181156Z AUTO 06004KT 8SM CLR M01/M02 A3012 RMK AO2 SLP205 7//// T10061022 10056 21006 55005 FZRANO
KEUL 181056Z AUTO 12005KT 8SM CLR 00/M02 A3012 RMK AO2 SLP204 T00001017 FZRANO
KEUL 180956Z AUTO 00000KT 7SM CLR 01/M01 A3013 RMK AO2 SLP206 T00061011 FZRANO
KEUL 180856Z AUTO 36003KT 8SM CLR 01/M02 A3014 RMK AO2 SLP211 T00111017 53003 FZRANO
KEUL 180756Z AUTO 11005KT 9SM CLR 02/M01 A3012 RMK AO2 SLP206 T00171011 FZRANO
KEUL 180656Z AUTO 32003KT 5SM HZ CLR 04/00 A3013 RMK AO2 SLP210 T00390000 401671011
KEUL 180556Z AUTO 00000KT 9SM CLR 06/01 A3013 RMK AO2 SLP207 6//// T00560011 10161 20044 51018
KEUL 180456Z AUTO 19003KT 10SM CLR 07/02 A3012 RMK AO2 SLP204 T00670017
KEUL 180427Z AUTO 00000KT 10SM CLR 06/02 A3012 RMK AO2
KEUL 180413Z AUTO 00000KT 1 1/4SM HZ CLR 06/01 A3011 RMK AO2
KEUL 180407Z AUTO 32003KT 3/4SM HZ CLR 06/01 A3011 RMK AO2 VIS 1/4V5 RVRNO
KEUL 180405Z AUTO 32003KT 1 1/2SM HZ CLR 06/01 A3011 RMK AO2 VIS 1/2V5
KEUL 180356Z AUTO 29003KT 10SM CLR 06/01 A3011 RMK AO2 SLP204 T00610011
KEUL 180256Z AUTO 00000KT 10SM CLR 10/02 A3007 RMK AO2 SLP192 T01000022 53006
KEUL 180156Z AUTO 27003KT 10SM CLR 11/01 A3006 RMK AO2 SLP189 T01110011
KEUL 180056Z AUTO 30005KT 10SM CLR 14/01 A3006 RMK AO2 SLP186 T01440011
KEUL 172356Z AUTO 00000KT 10SM CLR 16/01 A3005 RMK AO2 SLP180 6//// T01610006 10167 20100 58019
KEUL 172256Z AUTO 25003KT 10SM CLR 16/01 A3008 RMK AO2 SLP191 T01610006
KEUL 172156Z AUTO 03003KT 10SM CLR 16/00 A3009 RMK AO2 SLP193 T01560000
KEUL 172056Z AUTO VRB04KT 10SM CLR 14/M01 A3011 RMK AO2 SLP201 6//// T01441006 58024
KEUL 171956Z AUTO 29003KT 10SM CLR 12/00 A3015 RMK AO2 SLP217 T01220000